Pagina principale
METAR-TAF:

METAR-TAF

Aeroporti :

Genova, Italia

Aeroporto di Genova-Sestri

latitudine: 44-25N, longitudine: 008-51E, altezza: 2 m

Osservazione

Il bollettino è stato emesso 34 minuti fa, alle 17:20 UTC
Vento 4 kt da sud, variando fra sud e sud-ovest
Temperature 15°C
Umidità 51%
Pressione 1010 hPa
Visibilità 10 km o più
Nubi sparse ad un'altezza di 4500 ft

METAR: LIMJ 281720Z 19004KT 170V230 9999 SCT045 15/05 Q1010

Ora: 19:54 (17:54 UTC)

Previsione

Il bollettino è stato emesso 54 minuti fa, alle 17:00 UTC
Previsione valida dal 28 alle 18 UTC al 29 alle 18 UTC
Vento 10 kt da sud-ovest
Visibilità 10 km o più
Nubi sparse ad un'altezza di 3500 ft
Evoluzione graduale
dal 28 alle 20 UTC al 28 alle 22 UTC
Vento 6 kt da nord/nord-est

TAF: LIMJ 281700Z 2818/2918 23010KT 9999 SCT035 BECMG 2820/2822 03006KT

Osservazioni e previsioni meteorologiche di più di 4000 aeroporti (messaggi METAR e TAF).

Le stazioni disponibili sono rappresentate dai dischi gialli e rossi sulla carta.

Puntare il mouse per vedere il nome della stazione.

Clicca sopra per visualizzare le osservazioni e previsioni meteorologiche.

Per cambiare la mappa : fare clic sui pulsanti verdi con una croce nera per ingrandire, il pulsante verde con un trattino per diminuire, o sulla freccia verde per le mappe adiacenti.


METAR-TAF: